Terminal Aerodrome Forecast
Issued by NWS

Home | Current Version | Previous Version | Text Only | Print | Product List | Glossary Off
Versions: 1 2 3 4 5 6 7 8 9 10 11 12 13 14 15 16 17

107
FTUS43 KBIS 181122
TAFJMS
TAF
KJMS 181122Z 1812/1912 28007KT P6SM SCT140
     FM182100 06006KT P6SM BKN100
     FM190000 10007KT P6SM BKN080
     FM191000 13008KT P6SM OVC040=

USA.gov is the U.S. government's official web portal to all federal, state and local government web resources and services.